YBCG/OOL METAR and TAF weather

Enter ICAO airport designator
Station Type Date Time Source
YBCG METAR 2022/07/03 14:30 UTC NOAA

YBCG 031430Z AUTO 00000KT 9999 // NCD 13/13 Q1013 RF00.0/000.2


Station Type Date Time Source
YBCG Decoded METAR 2022/07/03 14:30 UTC NOAA

Coolangatta Airport Aws, Australia (YBCG) 28-10S 153-30E 6M
Jul 03, 2022 - 10:30 AM EDT / 2022.07.03 1430 UTC
Wind: Calm:0
Visibility: greater than 7 mile(s):0
Temperature: 55 F (13 C)
Dew Point: 55 F (13 C)
Relative Humidity: 100%
Pressure (altimeter): 29.91 in. Hg (1013 hPa)
ob: YBCG 031430Z AUTO 00000KT 9999 // NCD 13/13 Q1013 RF00.0/000.2
cycle: 14

Station Type Date Time Source
YBCG TAF 2022/07/03 15:36 UTC NOAA

TAF YBCG 031415Z 0315/0412 27005KT CAVOK
FM040000 34008KT CAVOK

Example: see airport list